createdAt,value
2023-01-17T00:04:10.284Z,29.17
2023-01-17T00:10:23.741Z,23.13
2023-01-17T00:16:26.215Z,22.87
2023-01-17T00:22:49.741Z,25.83
2023-01-17T00:28:52.255Z,22.90
2023-01-17T00:34:54.731Z,24.60
2023-01-17T00:41:06.215Z,26.13
2023-01-17T00:47:26.888Z,25.60
2023-01-17T00:53:47.057Z,22.87
2023-01-17T01:00:07.350Z,22.83
2023-01-17T01:06:28.357Z,21.87
2023-01-17T01:12:51.874Z,23.23
2023-01-17T01:19:12.545Z,21.00
2023-01-17T01:25:33.048Z,22.00
2023-01-17T01:31:55.521Z,22.20
2023-01-17T01:38:02.514Z,22.90
2023-01-17T01:44:57.830Z,20.67
2023-01-17T01:51:05.169Z,19.60
2023-01-17T01:57:14.632Z,21.43
2023-01-17T02:03:38.408Z,20.13
2023-01-17T02:09:45.647Z,23.93
2023-01-17T02:16:01.237Z,22.30
2023-01-17T02:22:13.671Z,23.60
2023-01-17T02:28:27.179Z,20.20
2023-01-17T02:34:56.768Z,18.90
2023-01-17T02:41:09.477Z,24.10
2023-01-17T02:47:32.234Z,22.97
2023-01-17T02:53:55.364Z,20.87
2023-01-17T03:00:04.847Z,21.20
2023-01-17T03:06:15.302Z,24.27
2023-01-17T03:12:17.790Z,25.23
2023-01-17T03:18:23.933Z,23.60
2023-01-17T03:24:33.651Z,20.83
2023-01-17T03:30:36.227Z,20.87
2023-01-17T03:36:40.592Z,20.10
2023-01-17T03:42:52.162Z,20.43
2023-01-17T03:48:56.648Z,19.40
2023-01-17T03:55:03.153Z,19.10
2023-01-17T04:01:05.665Z,19.23
2023-01-17T04:07:11.026Z,19.70
2023-01-17T04:13:14.500Z,26.67
2023-01-17T04:19:16.953Z,25.20
2023-01-17T04:25:19.434Z,25.10
2023-01-17T04:31:27.888Z,27.20
2023-01-17T04:37:30.354Z,30.00
2023-01-17T04:43:32.814Z,27.93
2023-01-17T04:49:35.265Z,50.90
2023-01-17T04:55:37.716Z,36.50
2023-01-17T05:01:43.253Z,29.17
2023-01-17T05:07:45.683Z,24.13
2023-01-17T05:13:49.141Z,31.70
2023-01-17T05:19:52.591Z,38.60
2023-01-17T05:25:56.634Z,38.40
2023-01-17T05:32:01.507Z,41.83
2023-01-17T05:38:03.949Z,26.93
2023-01-17T05:44:08.344Z,38.67
2023-01-17T05:50:12.585Z,30.10
2023-01-17T05:56:14.637Z,32.93
2023-01-17T06:02:16.344Z,26.80
2023-01-17T06:08:21.300Z,26.37
2023-01-17T06:14:23.831Z,32.70
2023-01-17T06:20:26.307Z,51.03
2023-01-17T06:26:28.766Z,36.80
2023-01-17T06:32:31.303Z,32.20
2023-01-17T06:38:35.879Z,30.60
2023-01-17T06:44:38.196Z,31.23
2023-01-17T06:50:40.733Z,36.90
2023-01-17T06:56:47.175Z,74.07
2023-01-17T07:02:50.636Z,68.50
2023-01-17T07:08:52.925Z,61.27
2023-01-17T07:14:54.668Z,56.47
2023-01-17T07:20:56.353Z,60.37
2023-01-17T07:26:58.494Z,51.03
2023-01-17T07:33:01.964Z,61.80
2023-01-17T07:39:06.370Z,47.93
2023-01-17T07:45:10.870Z,32.60
2023-01-17T07:51:15.349Z,36.70
2023-01-17T07:57:17.811Z,26.20
2023-01-17T08:03:20.311Z,31.50
2023-01-17T08:09:22.771Z,38.50
2023-01-17T08:15:28.229Z,43.33
2023-01-17T08:21:33.738Z,42.53
2023-01-17T08:27:36.304Z,33.23
2023-01-17T08:33:38.661Z,35.30
2023-01-17T08:39:41.153Z,36.23
2023-01-17T08:45:48.740Z,27.70
2023-01-17T08:51:56.154Z,22.80
2023-01-17T08:57:58.012Z,32.53
2023-01-17T09:04:00.089Z,28.60
2023-01-17T09:10:02.516Z,28.70
2023-01-17T09:16:05.976Z,29.10
2023-01-17T09:22:08.453Z,31.23
2023-01-17T09:28:18.458Z,30.03
2023-01-17T09:34:28.262Z,33.30
2023-01-17T09:40:30.859Z,27.37
2023-01-17T09:46:39.326Z,24.03
2023-01-17T09:52:41.756Z,25.37
2023-01-17T09:59:00.285Z,29.67
2023-01-17T10:05:36.904Z,31.53
2023-01-17T10:12:06.277Z,25.47
2023-01-17T10:18:44.035Z,23.90
2023-01-17T10:24:55.048Z,24.90
2023-01-17T10:31:13.138Z,22.30
2023-01-17T10:37:38.171Z,20.23
2023-01-17T10:43:53.091Z,23.00
2023-01-17T10:50:04.428Z,20.70
2023-01-17T10:56:10.220Z,17.97
2023-01-17T11:02:20.598Z,32.20
2023-01-17T11:08:23.075Z,25.47
2023-01-17T11:14:27.506Z,24.83
2023-01-17T11:20:44.026Z,23.87
2023-01-17T11:26:50.509Z,23.00
2023-01-17T11:32:56.402Z,29.10
2023-01-17T11:39:06.468Z,27.83
2023-01-17T11:45:32.017Z,29.37
2023-01-17T11:51:42.519Z,28.47
2023-01-17T11:57:51.052Z,26.57
2023-01-17T12:03:59.360Z,15.80
2023-01-17T12:10:25.034Z,16.43
2023-01-17T12:16:45.617Z,11.90
2023-01-17T12:23:16.163Z,15.83
2023-01-17T12:29:37.709Z,10.40
2023-01-17T12:35:52.185Z,16.87
2023-01-17T12:42:30.795Z,14.30
2023-01-17T12:48:38.250Z,15.20
2023-01-17T12:54:45.755Z,22.27
2023-01-17T13:00:57.345Z,17.87
2023-01-17T13:07:26.221Z,25.27
2023-01-17T13:13:33.371Z,20.87
2023-01-17T13:19:54.887Z,16.40
2023-01-17T13:26:00.415Z,19.73
2023-01-17T13:32:34.107Z,17.30
2023-01-17T13:39:30.706Z,16.27
2023-01-17T13:45:38.236Z,21.53
2023-01-17T13:52:06.926Z,12.43
2023-01-17T13:58:29.284Z,11.23
2023-01-17T14:05:11.604Z,15.57
2023-01-17T14:11:18.531Z,17.93
2023-01-17T14:17:23.865Z,15.77
2023-01-17T14:23:40.357Z,9.20
2023-01-17T14:29:48.497Z,8.53
2023-01-17T14:36:01.119Z,15.73
2023-01-17T14:42:03.833Z,18.23
2023-01-17T14:48:22.457Z,19.30
2023-01-17T14:54:27.841Z,16.87
2023-01-17T15:00:39.414Z,15.10
2023-01-17T15:06:46.334Z,20.57
2023-01-17T15:12:53.280Z,25.27
2023-01-17T15:19:00.761Z,48.03
2023-01-17T15:25:04.253Z,37.03
2023-01-17T15:31:16.905Z,120.90
2023-01-17T15:37:34.990Z,90.47
2023-01-17T15:43:38.717Z,52.70
2023-01-17T15:49:53.782Z,56.33
2023-01-17T15:55:56.661Z,28.70
2023-01-17T16:02:00.234Z,38.60
2023-01-17T16:08:02.588Z,28.97
2023-01-17T16:14:08.056Z,32.33
2023-01-17T16:20:21.492Z,46.50
2023-01-17T16:26:27.950Z,35.23
2023-01-17T16:32:30.526Z,29.53
2023-01-17T16:38:33.968Z,24.60
2023-01-17T16:44:38.462Z,34.53
2023-01-17T16:50:48.968Z,41.03
2023-01-17T16:56:51.415Z,38.17
2023-01-17T17:02:53.965Z,79.30
2023-01-17T17:08:57.354Z,19.40
2023-01-17T17:14:59.795Z,30.27
2023-01-17T17:21:02.412Z,24.00
2023-01-17T17:27:04.703Z,23.37
2023-01-17T17:33:07.175Z,19.07
2023-01-17T17:39:13.738Z,30.53
2023-01-17T17:45:16.138Z,29.93
2023-01-17T17:51:42.672Z,26.17
2023-01-17T17:57:47.162Z,20.37
2023-01-17T18:03:49.628Z,38.60
2023-01-17T18:09:52.100Z,43.03
2023-01-17T18:16:12.682Z,64.67
2023-01-17T18:22:15.113Z,32.73
2023-01-17T18:28:17.585Z,28.30
2023-01-17T18:34:28.093Z,34.97
2023-01-17T18:40:30.549Z,32.43
2023-01-17T18:46:34.040Z,39.93
2023-01-17T18:52:37.185Z,44.10
2023-01-17T18:58:44.982Z,31.60
2023-01-17T19:04:49.023Z,32.83
2023-01-17T19:10:51.933Z,28.30
2023-01-17T19:16:54.386Z,49.40
2023-01-17T19:22:58.778Z,33.10
2023-01-17T19:29:01.284Z,162.23
2023-01-17T19:35:04.163Z,188.77
2023-01-17T19:41:15.053Z,87.10
2023-01-17T19:47:17.751Z,170.20
2023-01-17T19:53:20.219Z,34.77
2023-01-17T19:59:23.748Z,24.77
2023-01-17T20:05:26.154Z,78.63
2023-01-17T20:11:29.613Z,29.93
2023-01-17T20:17:33.868Z,23.57
2023-01-17T20:23:39.518Z,21.17
2023-01-17T20:29:42.011Z,41.77
2023-01-17T20:35:44.462Z,49.67
2023-01-17T20:41:51.910Z,20.47
2023-01-17T20:47:55.769Z,9.83
2023-01-17T20:54:01.879Z,13.50
2023-01-17T21:00:05.321Z,11.43
2023-01-17T21:06:10.838Z,14.87
2023-01-17T21:12:15.322Z,17.60
2023-01-17T21:18:19.826Z,34.83
2023-01-17T21:24:22.624Z,31.73
2023-01-17T21:30:24.710Z,15.73
2023-01-17T21:36:30.153Z,13.53
2023-01-17T21:42:32.607Z,10.67
2023-01-17T21:48:34.478Z,11.93
2023-01-17T21:54:54.721Z,9.37
2023-01-17T22:01:08.162Z,11.90
2023-01-17T22:07:09.942Z,9.80
2023-01-17T22:13:17.060Z,10.10
2023-01-17T22:19:23.528Z,9.20
2023-01-17T22:25:26.015Z,15.33
2023-01-17T22:31:29.448Z,12.27
2023-01-17T22:37:31.901Z,13.50
2023-01-17T22:43:39.393Z,17.60
2023-01-17T22:49:41.835Z,18.70
2023-01-17T22:55:44.293Z,21.17
2023-01-17T23:01:46.744Z,17.60
2023-01-17T23:07:51.196Z,18.63
2023-01-17T23:13:53.670Z,47.77
2023-01-17T23:19:56.153Z,30.53
2023-01-17T23:26:03.535Z,12.27
2023-01-17T23:32:05.945Z,10.17
2023-01-17T23:38:26.267Z,9.57
2023-01-17T23:44:32.046Z,9.97
2023-01-17T23:50:33.898Z,13.30
2023-01-17T23:56:35.880Z,12.03
